createdAt,value
2023-04-18T00:02:44.168Z,14.60
2023-04-18T00:07:46.469Z,15.07
2023-04-18T00:12:48.060Z,15.93
2023-04-18T00:17:49.686Z,14.95
2023-04-18T00:22:53.115Z,15.48
2023-04-18T00:27:54.579Z,15.48
2023-04-18T00:32:56.025Z,14.77
2023-04-18T00:37:57.970Z,14.75
2023-04-18T00:42:59.932Z,15.93
2023-04-18T00:48:01.854Z,16.52
2023-04-18T00:53:04.016Z,15.88
2023-04-18T00:58:06.264Z,15.45
2023-04-18T01:03:08.546Z,15.20
2023-04-18T01:08:11.109Z,15.73
2023-04-18T01:13:16.954Z,14.93
2023-04-18T01:18:19.164Z,16.33
2023-04-18T01:23:21.279Z,14.93
2023-04-18T01:28:22.831Z,14.52
2023-04-18T01:33:24.359Z,16.08
2023-04-18T01:38:25.930Z,16.58
2023-04-18T01:43:27.442Z,15.63
2023-04-18T01:48:28.958Z,15.85
2023-04-18T01:53:30.866Z,15.00
2023-04-18T01:58:32.282Z,15.80
2023-04-18T02:03:33.967Z,14.63
2023-04-18T02:08:35.980Z,14.32
2023-04-18T02:13:37.642Z,15.30
2023-04-18T02:18:39.350Z,14.45
2023-04-18T02:23:40.765Z,13.50
2023-04-18T02:28:42.202Z,14.52
2023-04-18T02:33:44.594Z,14.55
2023-04-18T02:38:46.012Z,13.75
2023-04-18T02:43:47.451Z,13.88
2023-04-18T02:48:48.915Z,15.00
2023-04-18T02:53:54.928Z,13.80
2023-04-18T02:58:56.340Z,13.52
2023-04-18T03:03:58.391Z,14.10
2023-04-18T03:08:59.836Z,13.45
2023-04-18T03:14:01.286Z,13.32
2023-04-18T03:19:02.727Z,13.85
2023-04-18T03:24:04.390Z,13.40
2023-04-18T03:29:06.419Z,12.15
2023-04-18T03:34:07.834Z,13.05
2023-04-18T03:39:09.320Z,13.90
2023-04-18T03:44:11.209Z,13.63
2023-04-18T03:49:12.851Z,13.48
2023-04-18T03:54:15.388Z,14.02
2023-04-18T03:59:17.137Z,13.98
2023-04-18T04:04:19.294Z,13.43
2023-04-18T04:09:20.832Z,14.35
2023-04-18T04:14:22.898Z,15.05
2023-04-18T04:19:24.442Z,15.40
2023-04-18T04:24:25.871Z,16.77
2023-04-18T04:29:29.068Z,16.67
2023-04-18T04:34:31.041Z,16.88
2023-04-18T04:39:32.481Z,17.60
2023-04-18T04:44:35.589Z,16.77
2023-04-18T04:49:37.114Z,17.00
2023-04-18T04:54:38.761Z,16.67
2023-04-18T04:59:40.337Z,15.55
2023-04-18T05:04:41.894Z,16.65
2023-04-18T05:09:43.516Z,16.48
2023-04-18T05:14:44.969Z,16.42
2023-04-18T05:19:46.412Z,15.93
2023-04-18T05:24:47.864Z,14.48
2023-04-18T05:29:50.360Z,15.57
2023-04-18T05:34:51.806Z,16.50
2023-04-18T05:39:53.253Z,16.20
2023-04-18T05:44:54.700Z,15.55
2023-04-18T05:49:56.368Z,16.13
2023-04-18T05:54:57.790Z,16.35
2023-04-18T05:59:59.217Z,15.45
2023-04-18T06:05:01.517Z,15.98
2023-04-18T06:10:03.643Z,16.13
2023-04-18T06:15:05.841Z,15.65
2023-04-18T06:20:07.750Z,16.17
2023-04-18T06:25:10.065Z,15.20
2023-04-18T06:30:11.986Z,14.65
2023-04-18T06:35:13.471Z,16.15
2023-04-18T06:40:14.890Z,15.45
2023-04-18T06:45:16.360Z,15.80
2023-04-18T06:50:17.804Z,14.75
2023-04-18T06:55:19.390Z,16.08
2023-04-18T07:00:21.162Z,13.60
2023-04-18T07:05:22.695Z,14.20
2023-04-18T07:10:24.326Z,12.65
2023-04-18T07:15:25.841Z,13.40
2023-04-18T07:20:27.274Z,14.48
2023-04-18T07:25:28.757Z,13.00
2023-04-18T07:30:30.413Z,13.43
2023-04-18T07:35:31.957Z,10.63
2023-04-18T07:40:33.462Z,10.30
2023-04-18T07:45:38.245Z,10.60
2023-04-18T07:50:39.768Z,9.95
2023-04-18T07:55:41.258Z,8.93
2023-04-18T08:00:44.670Z,10.07
2023-04-18T08:05:46.159Z,9.05
2023-04-18T08:10:47.641Z,8.85
2023-04-18T08:15:49.125Z,8.60
2023-04-18T08:20:50.631Z,9.77
2023-04-18T08:25:52.433Z,9.80
2023-04-18T08:30:55.215Z,9.48
2023-04-18T08:35:56.686Z,8.95
2023-04-18T08:40:58.172Z,9.73
2023-04-18T08:46:00.520Z,9.15
2023-04-18T08:51:02.331Z,9.23
2023-04-18T08:56:05.417Z,9.85
2023-04-18T09:01:07.337Z,11.05
2023-04-18T09:06:14.334Z,11.88
2023-04-18T09:11:26.157Z,11.30
2023-04-18T09:16:28.114Z,11.65
2023-04-18T09:21:29.744Z,11.98
2023-04-18T09:26:35.851Z,12.52
2023-04-18T09:31:53.576Z,12.48
2023-04-18T09:37:08.956Z,13.23
2023-04-18T09:42:10.890Z,13.15
2023-04-18T09:47:12.379Z,12.77
2023-04-18T09:52:13.970Z,13.35
2023-04-18T09:57:17.243Z,12.15
2023-04-18T10:02:23.069Z,13.15
2023-04-18T10:07:25.948Z,12.70
2023-04-18T10:12:27.554Z,13.30
2023-04-18T10:17:29.769Z,14.13
2023-04-18T10:22:31.780Z,13.77
2023-04-18T10:27:48.334Z,15.05
2023-04-18T10:32:50.157Z,14.80
2023-04-18T10:37:52.126Z,14.70
2023-04-18T10:42:53.941Z,13.80
2023-04-18T10:48:30.257Z,14.15
2023-04-18T10:53:31.721Z,14.38
2023-04-18T10:58:34.378Z,14.23
2023-04-18T11:03:36.007Z,13.43
2023-04-18T11:08:37.525Z,13.73
2023-04-18T11:13:57.508Z,13.27
2023-04-18T11:18:59.511Z,14.00
2023-04-18T11:24:00.975Z,15.73
2023-04-18T11:29:03.399Z,12.60
2023-04-18T11:34:04.828Z,15.40
2023-04-18T11:39:06.318Z,16.02
2023-04-18T11:44:07.892Z,15.35
2023-04-18T11:49:24.604Z,15.88
2023-04-18T11:54:39.851Z,15.75
2023-04-18T11:59:48.253Z,15.85
2023-04-18T12:05:00.419Z,17.30
2023-04-18T12:10:04.225Z,15.68
2023-04-18T12:15:08.818Z,17.70
2023-04-18T12:20:11.426Z,17.20
2023-04-18T12:25:19.893Z,15.40
2023-04-18T12:30:29.722Z,14.88
2023-04-18T12:35:32.328Z,15.07
2023-04-18T12:40:33.865Z,16.15
2023-04-18T12:45:35.721Z,14.00
2023-04-18T12:50:37.216Z,15.20
2023-04-18T12:55:38.716Z,15.07
2023-04-18T13:00:40.669Z,15.60
2023-04-18T13:05:42.192Z,14.18
2023-04-18T13:10:43.782Z,14.02
2023-04-18T13:15:45.508Z,13.73
2023-04-18T13:20:47.165Z,17.15
2023-04-18T13:25:48.666Z,17.83
2023-04-18T13:30:50.200Z,19.25
2023-04-18T13:35:51.651Z,17.55
2023-04-18T13:41:04.434Z,16.52
2023-04-18T13:46:10.855Z,18.63
2023-04-18T13:51:12.341Z,21.30
2023-04-18T13:56:13.753Z,19.90
2023-04-18T14:01:16.600Z,20.77
2023-04-18T14:06:18.086Z,21.20
2023-04-18T14:11:20.160Z,20.55
2023-04-18T14:21:40.744Z,17.48
2023-04-18T14:26:42.245Z,15.75
2023-04-18T14:31:43.773Z,16.67
2023-04-18T14:36:45.296Z,16.48
2023-04-18T14:41:46.993Z,16.95
2023-04-18T14:46:48.475Z,15.15
2023-04-18T14:51:50.102Z,16.67
2023-04-18T14:56:51.600Z,16.77
2023-04-18T15:01:53.198Z,14.88
2023-04-18T15:06:54.644Z,14.70
2023-04-18T15:11:56.114Z,15.55
2023-04-18T15:16:57.815Z,16.48
2023-04-18T15:21:59.331Z,17.65
2023-04-18T15:27:01.427Z,17.85
2023-04-18T15:32:02.865Z,16.88
2023-04-18T15:37:04.558Z,16.55
2023-04-18T15:42:06.162Z,17.05
2023-04-18T15:47:07.731Z,17.63
2023-04-18T15:52:09.177Z,17.45
2023-04-18T15:57:12.140Z,18.00
2023-04-18T16:02:13.597Z,16.58
2023-04-18T16:07:15.997Z,18.40
2023-04-18T16:12:17.409Z,16.80
2023-04-18T16:17:18.821Z,18.60
2023-04-18T16:22:20.328Z,18.50
2023-04-18T16:27:21.939Z,18.10
2023-04-18T16:32:23.388Z,18.27
2023-04-18T16:37:24.949Z,17.42
2023-04-18T16:42:26.358Z,17.90
2023-04-18T16:47:28.635Z,18.48
2023-04-18T16:52:30.993Z,18.38
2023-04-18T16:57:32.590Z,18.60
2023-04-18T17:02:34.297Z,18.58
2023-04-18T17:07:35.941Z,18.80
2023-04-18T17:12:37.631Z,17.13
2023-04-18T17:17:39.144Z,18.65
2023-04-18T17:22:41.082Z,17.00
2023-04-18T17:27:43.126Z,18.02
2023-04-18T17:32:46.054Z,18.92
2023-04-18T17:37:49.379Z,18.95
2023-04-18T17:42:50.842Z,18.17
2023-04-18T17:47:52.381Z,21.00
2023-04-18T17:52:54.165Z,19.77
2023-04-18T17:57:55.848Z,20.27
2023-04-18T18:02:57.380Z,19.00
2023-04-18T18:08:00.174Z,18.92
2023-04-18T18:13:02.184Z,19.45
2023-04-18T18:18:03.782Z,19.40
2023-04-18T18:23:06.806Z,18.20
2023-04-18T18:28:08.285Z,18.55
2023-04-18T18:33:09.877Z,16.48
2023-04-18T18:38:11.407Z,16.50
2023-04-18T18:43:13.171Z,16.40
2023-04-18T18:48:15.368Z,16.90
2023-04-18T18:53:17.986Z,16.80
2023-04-18T18:58:19.415Z,15.70
2023-04-18T19:03:21.609Z,17.13
2023-04-18T19:08:23.190Z,16.75
2023-04-18T19:13:25.098Z,16.58
2023-04-18T19:18:26.602Z,16.33
2023-04-18T19:23:28.348Z,16.70
2023-04-18T19:28:29.810Z,17.45
2023-04-18T19:33:31.266Z,18.13
2023-04-18T19:38:33.961Z,19.10
2023-04-18T19:43:35.519Z,18.08
2023-04-18T19:48:36.960Z,17.85
2023-04-18T19:53:38.573Z,17.63
2023-04-18T19:58:51.028Z,16.13
2023-04-18T20:03:54.019Z,16.65
2023-04-18T20:08:55.754Z,16.27
2023-04-18T20:13:57.225Z,17.50
2023-04-18T20:18:58.758Z,17.58
2023-04-18T20:24:00.241Z,16.73
2023-04-18T20:29:03.618Z,16.33
2023-04-18T20:34:05.040Z,16.35
2023-04-18T20:39:06.486Z,16.48
2023-04-18T20:44:10.050Z,17.70
2023-04-18T20:49:11.611Z,17.10
2023-04-18T20:54:14.364Z,16.75
2023-04-18T20:59:16.070Z,17.23
2023-04-18T21:04:17.969Z,16.75
2023-04-18T21:09:19.580Z,16.60
2023-04-18T21:14:21.056Z,16.35
2023-04-18T21:19:22.523Z,15.65
2023-04-18T21:24:24.010Z,16.75
2023-04-18T21:29:25.551Z,15.73
2023-04-18T21:34:27.251Z,16.67
2023-04-18T21:39:28.725Z,16.75
2023-04-18T21:44:30.183Z,15.35
2023-04-18T21:49:31.619Z,16.92
2023-04-18T21:54:33.107Z,15.73
2023-04-18T21:59:34.583Z,16.05
2023-04-18T22:04:38.585Z,15.55
2023-04-18T22:09:39.998Z,15.52
2023-04-18T22:14:44.929Z,16.30
2023-04-18T22:19:48.027Z,15.90
2023-04-18T22:24:49.440Z,16.52
2023-04-18T22:29:51.049Z,15.00
2023-04-18T22:34:52.469Z,14.63
2023-04-18T22:39:53.907Z,15.23
2023-04-18T22:44:55.401Z,15.05
2023-04-18T22:49:56.858Z,14.40
2023-04-18T22:54:58.263Z,14.57
2023-04-18T22:59:59.674Z,14.10
2023-04-18T23:05:02.544Z,13.65
2023-04-18T23:10:06.957Z,13.55
2023-04-18T23:15:08.861Z,13.65
2023-04-18T23:20:11.282Z,12.48
2023-04-18T23:25:12.811Z,14.05
2023-04-18T23:30:14.439Z,12.00
2023-04-18T23:35:15.959Z,14.48
2023-04-18T23:40:17.431Z,13.50
2023-04-18T23:45:18.990Z,13.32
2023-04-18T23:50:20.752Z,12.63
2023-04-18T23:55:22.214Z,13.52
